Longvann — PBYB — position and weather

sailwx.info

Track history (hours):
 
Tides and Currents Weather Stations Pressure Air Temp Water Temp Dewpoint Dewpoint Depression Visibility Wind Speed Wind Dir Waves Ship Positions

Longvann

Last reported at 2017-Oct-19 05:25 UTC. Time now 2017-Oct-20 09:05 UTC.
Position N 59°36' E 023°02'.

Length 114 m; draft 5.5 m.

Type: Cargo ship. MMSI: 246670000.

Date/timePositionNaut miles runAvg speedWind from/ knotsBaromVisibWave heightAir tempDewpointWater temp
2017-Oct-19 05:25N 59°36' E 023°02'611.1
2017-Oct-19 04:54N 59°37' E 023°13'411.1
2017-Oct-19 04:30N 59°38' E 023°21'611.0
2017-Oct-19 04:00N 59°40' E 023°32'611.1
2017-Oct-19 03:30N 59°42' E 023°42'611.1
2017-Oct-19 03:00N 59°43' E 023°53'1311.1
2017-Oct-19 01:48N 59°47' E 024°18'311.0
2017-Oct-19 01:31N 59°47' E 024°24'511.0
2017-Oct-19 01:00N 59°48' E 024°35'510.9
2017-Oct-19 00:31N 59°50' E 024°46'510.7
2017-Oct-19 00:00N 59°51' E 024°56'610.8
2017-Oct-18 23:29N 59°52' E 025°07'3310.7
2017-Oct-18 20:22N 59°59' E 026°12'411.0
2017-Oct-18 20:00N 59°60' E 026°20'5 9.2
2017-Oct-18 19:31N 60°01' E 026°29'5 9.7
2017-Oct-18 19:00N 60°01' E 026°38'5 9.8
2017-Oct-18 18:31N 60°01' E 026°48'5 9.8
2017-Oct-18 18:01N 59°60' E 026°58'5 9.8
2017-Oct-18 17:31N 60°01' E 027°07'510.7
2017-Oct-18 17:00N 60°03' E 027°17'510.7
2017-Oct-18 16:31N 60°06' E 027°26'510.7
2017-Oct-18 16:00N 60°09' E 027°35'510.6
2017-Oct-18 15:31N 60°12' E 027°44'5 9.6
2017-Oct-18 15:00N 60°11' E 027°54'1010.2
2017-Oct-18 14:00N 60°09' E 028°13'510.1
2017-Oct-18 13:30N 60°06' E 028°22'510.4
2017-Oct-18 13:00N 60°03' E 028°31'510.6
2017-Oct-18 12:31N 60°03' E 028°41'510.8
2017-Oct-18 12:00N 60°03' E 028°52'510.7
2017-Oct-18 11:30N 60°02' E 029°03'610.4
2017-Oct-18 10:58N 60°02' E 029°14'1510.3
2017-Oct-18 09:32N 59°59' E 029°43'0 6.3
2017-Oct-18 09:29N 59°59' E 029°44'510.0
2017-Oct-18 09:00N 59°57' E 029°52'611.6
2017-Oct-18 08:30N 59°55' E 030°03'4 8.8
2017-Oct-18 08:00N 59°53' E 030°11'1 1.8
2017-Oct-18 07:30N 59°53' E 030°13'0 0.0
2017-Oct-18 06:57N 59°53' E 030°13'0 0.0
2017-Oct-18 06:30N 59°53' E 030°13'0 0.0
2017-Oct-18 06:00N 59°53' E 030°13'0 0.0
2017-Oct-18 05:30N 59°53' E 030°13'0 0.0
2017-Oct-18 05:00N 59°53' E 030°13'0 0.0
2017-Oct-18 04:30N 59°53' E 030°13'0 0.0
2017-Oct-18 04:00N 59°53' E 030°13'0 0.0
2017-Oct-18 03:30N 59°53' E 030°13'0 0.0
2017-Oct-18 03:00N 59°53' E 030°13'0 0.0
2017-Oct-18 02:30N 59°53' E 030°13'0 0.0
2017-Oct-18 02:00N 59°53' E 030°13'0 0.0
2017-Oct-18 01:30N 59°53' E 030°13'0 0.0
2017-Oct-18 01:00N 59°53' E 030°13'0 0.0
2017-Oct-18 00:30N 59°53' E 030°13'0 0.0
2017-Oct-18 00:00N 59°53' E 030°13'0 0.0
2017-Oct-17 23:30N 59°53' E 030°13'0 0.0
2017-Oct-17 23:00N 59°53' E 030°13'0 0.0
2017-Oct-17 22:30N 59°53' E 030°13'0 0.0
2017-Oct-17 22:00N 59°53' E 030°13'0 0.0
2017-Oct-17 21:27N 59°53' E 030°13'0 0.0
2017-Oct-17 21:00N 59°53' E 030°13'0 0.0
2017-Oct-17 20:30N 59°53' E 030°13'0 0.0
2017-Oct-17 20:00N 59°53' E 030°13'0 0.0
2017-Oct-17 19:30N 59°53' E 030°13'0 0.0
2017-Oct-17 18:58N 59°53' E 030°13'0 0.0
2017-Oct-17 18:28N 59°53' E 030°13'0 0.0
2017-Oct-17 17:59N 59°53' E 030°13'0 0.0
2017-Oct-17 17:28N 59°53' E 030°13'0 0.0
2017-Oct-17 16:59N 59°53' E 030°13'0 0.0
2017-Oct-17 16:28N 59°53' E 030°13'0 0.0
2017-Oct-17 15:58N 59°53' E 030°13'0 0.0
2017-Oct-17 15:28N 59°53' E 030°13'0 0.0
2017-Oct-17 14:59N 59°53' E 030°13'0 0.0
2017-Oct-17 14:29N 59°53' E 030°13'0 0.0
2017-Oct-17 13:58N 59°53' E 030°13'0 0.0
2017-Oct-17 13:28N 59°53' E 030°13'0 0.0
2017-Oct-17 12:56N 59°53' E 030°13'0 0.0
2017-Oct-17 12:29N 59°53' E 030°13'0 0.0
2017-Oct-17 11:58N 59°53' E 030°13'0 0.0
2017-Oct-17 11:28N 59°53' E 030°13'0 0.0
2017-Oct-17 10:59N 59°53' E 030°13'0 0.0
2017-Oct-17 10:29N 59°53' E 030°13'0 0.0
2017-Oct-17 09:59N 59°53' E 030°13'0 0.0
2017-Oct-17 09:29N 59°53' E 030°13'0 0.0
2017-Oct-17 08:59N 59°53' E 030°13'0 0.0
2017-Oct-17 08:29N 59°53' E 030°13'0 0.0
2017-Oct-17 07:58N 59°53' E 030°13'0 0.0
2017-Oct-17 07:28N 59°53' E 030°13'0 0.0
2017-Oct-17 06:59N 59°53' E 030°13'0 0.0
2017-Oct-17 06:28N 59°53' E 030°13'0 0.0
2017-Oct-17 05:59N 59°53' E 030°13'0 0.0
2017-Oct-17 05:29N 59°53' E 030°13'0 0.0
2017-Oct-17 04:58N 59°53' E 030°13'0 0.3
2017-Oct-17 04:29N 59°53' E 030°13'2 3.1
2017-Oct-17 03:58N 59°55' E 030°14'0 0.0
2017-Oct-17 03:16N 59°55' E 030°14'0 0.0
2017-Oct-17 02:58N 59°55' E 030°14'0 0.0
2017-Oct-17 02:28N 59°55' E 030°14'0 0.0
2017-Oct-17 01:58N 59°55' E 030°14'0 0.0
2017-Oct-17 01:28N 59°55' E 030°14'0 0.0
2017-Oct-17 00:58N 59°55' E 030°14'0 0.0
2017-Oct-17 00:28N 59°55' E 030°14'0 0.0
2017-Oct-16 23:58N 59°55' E 030°14'0 0.0
2017-Oct-16 23:28N 59°55' E 030°14'0 0.0
2017-Oct-16 22:58N 59°55' E 030°14'0 0.0
2017-Oct-16 22:28N 59°55' E 030°14'0 0.0
2017-Oct-16 21:58N 59°55' E 030°14'0 0.0
2017-Oct-16 21:28N 59°55' E 030°14'0 0.0
2017-Oct-16 20:58N 59°55' E 030°14'0 0.0
2017-Oct-16 20:28N 59°55' E 030°14'0 0.0
2017-Oct-16 19:58N 59°55' E 030°14'0 0.0
2017-Oct-16 19:28N 59°55' E 030°14'0 0.0
2017-Oct-16 18:58N 59°55' E 030°14'0 0.0
2017-Oct-16 18:28N 59°55' E 030°14'0 0.0
2017-Oct-16 17:58N 59°55' E 030°14'0 0.0
2017-Oct-16 17:28N 59°55' E 030°14'0 0.0
2017-Oct-16 16:58N 59°55' E 030°14'0 0.0
2017-Oct-16 16:28N 59°55' E 030°14'0 0.0
2017-Oct-16 15:58N 59°55' E 030°14'0 0.0
2017-Oct-16 15:28N 59°55' E 030°14'0 0.0
2017-Oct-16 14:52N 59°55' E 030°14'0 0.0
2017-Oct-16 13:58N 59°55' E 030°14'0 0.0
2017-Oct-16 13:28N 59°55' E 030°14'0 0.0
2017-Oct-16 12:58N 59°55' E 030°14'0 0.0
2017-Oct-16 12:28N 59°55' E 030°14'0 0.0
2017-Oct-16 11:58N 59°55' E 030°14'0 0.0
2017-Oct-16 11:28N 59°55' E 030°14'0 0.0
2017-Oct-16 10:58N 59°55' E 030°14'0 0.0
2017-Oct-16 10:25N 59°55' E 030°14'0 0.0
2017-Oct-16 09:58N 59°55' E 030°14'0 0.0
2017-Oct-16 09:28N 59°55' E 030°14'0 0.0
2017-Oct-16 08:58N 59°55' E 030°14'0 0.0
2017-Oct-16 08:28N 59°55' E 030°14'0 0.0
2017-Oct-16 07:58N 59°55' E 030°14'0 0.0
2017-Oct-16 07:28N 59°55' E 030°14'0 0.0
2017-Oct-16 06:58N 59°55' E 030°14'0 0.0
2017-Oct-16 06:28N 59°55' E 030°14'0 0.0
2017-Oct-16 05:58N 59°55' E 030°14'0 0.0
2017-Oct-16 05:25N 59°55' E 030°14'0 0.0
2017-Oct-16 04:58N 59°55' E 030°14'0 0.0
2017-Oct-16 04:28N 59°55' E 030°14'0 0.0
2017-Oct-16 03:58N 59°55' E 030°14'0 0.0
2017-Oct-16 03:28N 59°55' E 030°14'0 0.0
2017-Oct-16 02:58N 59°55' E 030°14'0 0.0
2017-Oct-16 02:28N 59°55' E 030°14'0 0.0
2017-Oct-16 01:58N 59°55' E 030°14'0 0.0
2017-Oct-16 01:28N 59°55' E 030°14'0 0.0
2017-Oct-16 00:58N 59°55' E 030°14'0 0.0
2017-Oct-16 00:28N 59°55' E 030°14'0 0.0
2017-Oct-15 23:58N 59°55' E 030°14'0 0.0
2017-Oct-15 23:28N 59°55' E 030°14'0 0.0
2017-Oct-15 22:55N 59°55' E 030°14'0 0.0
2017-Oct-15 22:28N 59°55' E 030°14'0 0.0
2017-Oct-15 21:58N 59°55' E 030°14'0 0.0
2017-Oct-15 21:28N 59°55' E 030°14'0 0.0
2017-Oct-15 20:58N 59°55' E 030°14'0 0.0
2017-Oct-15 20:28N 59°55' E 030°14'0 0.0
2017-Oct-15 19:58N 59°55' E 030°14'0 0.0
2017-Oct-15 19:28N 59°55' E 030°14'0 0.0
2017-Oct-15 18:58N 59°55' E 030°14'0 0.0
2017-Oct-15 18:28N 59°55' E 030°14'0 0.0
2017-Oct-15 17:58N 59°55' E 030°14'0 0.0
2017-Oct-15 17:28N 59°55' E 030°14'0 0.0
2017-Oct-15 16:58N 59°55' E 030°14'0 0.0
2017-Oct-15 16:28N 59°55' E 030°14'0 0.0
2017-Oct-15 15:58N 59°55' E 030°14'0 0.0
2017-Oct-15 15:28N 59°55' E 030°14'0 0.0
2017-Oct-15 14:58N 59°55' E 030°14'0 0.0
2017-Oct-15 13:58N 59°55' E 030°14'0 0.0
2017-Oct-15 13:28N 59°55' E 030°14'0 0.0
2017-Oct-15 12:58N 59°55' E 030°14'0 0.0
2017-Oct-15 12:28N 59°55' E 030°14'0 0.0
2017-Oct-15 11:58N 59°55' E 030°14'0 0.0
2017-Oct-15 11:28N 59°55' E 030°14'0 0.0
2017-Oct-15 10:58N 59°55' E 030°14'0 0.0
2017-Oct-15 10:28N 59°55' E 030°14'0 0.0
2017-Oct-15 09:58N 59°55' E 030°14'0 0.0
2017-Oct-15 09:28N 59°55' E 030°14'0 0.0
2017-Oct-15 08:58N 59°55' E 030°14'0 0.0
2017-Oct-15 08:28N 59°55' E 030°14'0 0.0
2017-Oct-15 07:58N 59°55' E 030°14'0 0.0
2017-Oct-15 07:28N 59°55' E 030°14'0 0.0
2017-Oct-15 06:58N 59°55' E 030°14'0 0.0
2017-Oct-15 06:28N 59°55' E 030°14'0 0.0
2017-Oct-15 05:58N 59°55' E 030°14'0 0.0
2017-Oct-15 05:28N 59°55' E 030°14'0 0.0
2017-Oct-15 04:58N 59°55' E 030°14'0 0.0
2017-Oct-15 04:28N 59°55' E 030°14'0 0.0
2017-Oct-15 03:58N 59°55' E 030°14'0 0.0
2017-Oct-15 03:28N 59°55' E 030°14'0 0.0
2017-Oct-15 02:58N 59°55' E 030°14'0 0.0
2017-Oct-15 02:28N 59°55' E 030°14'0 0.0
2017-Oct-15 01:58N 59°55' E 030°14'0 0.0
2017-Oct-15 01:28N 59°55' E 030°14'0 0.0
2017-Oct-15 00:58N 59°55' E 030°14'0 0.0
2017-Oct-15 00:28N 59°55' E 030°14'0 0.0
2017-Oct-14 23:58N 59°55' E 030°14'0 0.0
2017-Oct-14 23:28N 59°55' E 030°14'0 0.0
2017-Oct-14 22:58N 59°55' E 030°14'0 0.0
2017-Oct-14 22:28N 59°55' E 030°14'0 0.0
2017-Oct-14 21:58N 59°55' E 030°14'0 0.0
2017-Oct-14 21:28N 59°55' E 030°14'0 0.0
2017-Oct-14 20:58N 59°55' E 030°14'0 0.0
2017-Oct-14 20:28N 59°55' E 030°14'0 0.0
2017-Oct-14 19:58N 59°55' E 030°14'0 0.0
2017-Oct-14 19:28N 59°55' E 030°14'0 0.0
2017-Oct-14 18:58N 59°55' E 030°14'0 0.0
2017-Oct-14 18:28N 59°55' E 030°14'0 0.0
2017-Oct-14 17:58N 59°55' E 030°14'0 0.0
2017-Oct-14 17:28N 59°55' E 030°14'0 0.0
2017-Oct-14 16:58N 59°55' E 030°14'0 0.0
2017-Oct-14 16:28N 59°55' E 030°14'0 0.0
2017-Oct-14 16:00N 59°55' E 030°14'0 0.1
2017-Oct-14 15:31N 59°55' E 030°14'2 4.0
2017-Oct-14 15:00N 59°53' E 030°11'3 6.1
2017-Oct-14 14:31N 59°54' E 030°06'5 9.1
2017-Oct-14 14:00N 59°56' E 029°57'611.4
2017-Oct-14 13:30N 59°58' E 029°47'611.1
2017-Oct-14 13:00N 60°00' E 029°37'13 6.3
2017-Oct-14 10:58N 60°02' E 029°11'4 7.5
2017-Oct-14 10:24N 60°02' E 029°02'6 8.3
2017-Oct-14 09:44N 60°02' E 028°51'2 8.2
2017-Oct-14 09:30N 60°02' E 028°47'4 8.3
2017-Oct-14 09:00N 60°02' E 028°39'4 8.4
2017-Oct-14 08:30N 60°02' E 028°31'510.7
2017-Oct-14 08:00N 60°05' E 028°21'611.3
2017-Oct-14 07:30N 60°08' E 028°11'612.0
2017-Oct-14 07:00N 60°09' E 027°60'612.2
2017-Oct-14 06:30N 60°11' E 027°48'611.9
2017-Oct-14 06:00N 60°08' E 027°38'612.1
2017-Oct-14 05:30N 60°05' E 027°27'612.2
2017-Oct-14 05:00N 60°02' E 027°16'612.1
2017-Oct-14 04:30N 59°59' E 027°06'611.7
2017-Oct-14 04:00N 59°58' E 026°54'612.3
2017-Oct-14 03:30N 59°59' E 026°42'612.0
2017-Oct-14 03:00N 59°58' E 026°30'612.1
2017-Oct-14 02:30N 59°56' E 026°19'3412.2
2017-Oct-13 23:44N 59°48' E 025°13'312.2
2017-Oct-13 23:30N 59°48' E 025°08'612.6
2017-Oct-13 23:00N 59°46' E 024°55'612.4
2017-Oct-13 22:30N 59°45' E 024°43'611.8
2017-Oct-13 22:00N 59°42' E 024°34'611.9
2017-Oct-13 21:30N 59°37' E 024°26'5 9.9
2017-Oct-13 21:00N 59°32' E 024°28'611.6
2017-Oct-13 20:30N 59°28' E 024°36'2 3.9
2017-Oct-13 19:59N 59°27' E 024°40'0 0.0
2017-Oct-13 19:29N 59°27' E 024°40'0 0.0
2017-Oct-13 18:59N 59°27' E 024°40'0 0.0
2017-Oct-13 18:29N 59°27' E 024°40'0 0.0
2017-Oct-13 17:59N 59°27' E 024°40'0 0.0
2017-Oct-13 17:29N 59°27' E 024°40'0 0.0
2017-Oct-13 16:56N 59°27' E 024°40'0 0.0
2017-Oct-13 16:29N 59°27' E 024°40'0 0.0
2017-Oct-13 15:59N 59°27' E 024°40'0 0.0
2017-Oct-13 15:29N 59°27' E 024°40'0 0.0
2017-Oct-13 14:59N 59°27' E 024°40'0 0.0
2017-Oct-13 14:29N 59°27' E 024°40'0 0.0
2017-Oct-13 13:59N 59°27' E 024°40'0 0.0
2017-Oct-13 13:29N 59°27' E 024°40'0 0.0
2017-Oct-13 12:59N 59°27' E 024°40'0 0.0
2017-Oct-13 12:29N 59°27' E 024°40'0 0.0
2017-Oct-13 11:59N 59°27' E 024°40'0 0.0
2017-Oct-13 11:29N 59°27' E 024°40'0 0.0
2017-Oct-13 10:59N 59°27' E 024°40'0 0.0
2017-Oct-13 10:29N 59°27' E 024°40'0 0.0
2017-Oct-13 09:59N 59°27' E 024°40'0 0.0
2017-Oct-13 09:29N 59°27' E 024°40'0 0.0
2017-Oct-13 08:59N 59°27' E 024°40'0 0.0
2017-Oct-13 08:29N 59°27' E 024°40'0 0.0
2017-Oct-13 07:59N 59°27' E 024°40'0 0.0
2017-Oct-13 07:29N 59°27' E 024°40'0 0.0
2017-Oct-13 06:59N 59°27' E 024°40'0 0.0
2017-Oct-13 06:29N 59°27' E 024°40'0 0.0
2017-Oct-13 05:59N 59°27' E 024°40'0 0.0
2017-Oct-13 05:29N 59°27' E 024°40'0 0.0
2017-Oct-13 04:56N 59°27' E 024°40'0 0.0
2017-Oct-13 04:26N 59°27' E 024°40'0 0.0
2017-Oct-13 03:56N 59°27' E 024°40'0 0.0
2017-Oct-13 03:26N 59°27' E 024°40'0 0.0
2017-Oct-13 02:59N 59°27' E 024°40'0 0.0
2017-Oct-13 02:29N 59°27' E 024°40'0 0.0
2017-Oct-13 01:59N 59°27' E 024°40'0 0.0
2017-Oct-13 01:29N 59°27' E 024°40'0 0.0
2017-Oct-13 00:56N 59°27' E 024°40'0 0.0
2017-Oct-13 00:29N 59°27' E 024°40'0 0.0
2017-Oct-12 23:56N 59°27' E 024°40'0 0.0
2017-Oct-12 23:29N 59°27' E 024°40'0 0.0
2017-Oct-12 22:56N 59°27' E 024°40'0 0.0
2017-Oct-12 22:29N 59°27' E 024°40'0 0.0
2017-Oct-12 21:59N 59°27' E 024°40'0 0.0
2017-Oct-12 21:29N 59°27' E 024°40'0 0.0
2017-Oct-12 20:56N 59°27' E 024°40'0 0.0
2017-Oct-12 20:26N 59°27' E 024°40'0 0.0
2017-Oct-12 19:56N 59°27' E 024°40'0 0.0
2017-Oct-12 19:29N 59°27' E 024°40'0 0.0
2017-Oct-12 18:59N 59°27' E 024°40'0 0.0
2017-Oct-12 18:29N 59°27' E 024°40'0 0.0
2017-Oct-12 17:56N 59°27' E 024°40'0 0.0
2017-Oct-12 17:29N 59°27' E 024°40'0 0.0
2017-Oct-12 16:59N 59°27' E 024°40'0 0.0
2017-Oct-12 16:26N 59°27' E 024°40'0 0.0
2017-Oct-12 15:59N 59°27' E 024°40'0 0.0
2017-Oct-12 15:26N 59°27' E 024°40'0 0.0
2017-Oct-12 14:59N 59°27' E 024°40'0 0.0
2017-Oct-12 14:14N 59°27' E 024°40'0 0.0
2017-Oct-12 13:56N 59°27' E 024°40'0 0.0
2017-Oct-12 13:20N 59°27' E 024°40'0 0.0
2017-Oct-12 12:56N 59°27' E 024°40'0 0.0
2017-Oct-12 12:26N 59°27' E 024°40'0 0.0
2017-Oct-12 11:50N 59°27' E 024°40'0 0.0
2017-Oct-12 11:29N 59°27' E 024°40'0 0.0
2017-Oct-12 10:59N 59°27' E 024°40'0 0.0
2017-Oct-12 10:29N 59°27' E 024°40'0 0.0
2017-Oct-12 09:59N 59°27' E 024°40'0 0.0
2017-Oct-12 09:29N 59°27' E 024°40'0 0.0
2017-Oct-12 08:59N 59°27' E 024°40'0 0.0
2017-Oct-12 08:29N 59°27' E 024°40'0 0.0
2017-Oct-12 07:59N 59°27' E 024°40'0 0.0
2017-Oct-12 07:29N 59°27' E 024°40'0 0.0
2017-Oct-12 06:59N 59°27' E 024°40'0 0.0
2017-Oct-12 06:29N 59°27' E 024°40'0 0.1
2017-Oct-12 05:59N 59°27' E 024°40'0 0.0
2017-Oct-12 05:29N 59°27' E 024°40'0 0.0
2017-Oct-12 04:59N 59°27' E 024°40'0 0.0
2017-Oct-12 04:29N 59°27' E 024°40'0 0.0
2017-Oct-12 03:59N 59°27' E 024°40'0 0.0
2017-Oct-12 03:29N 59°27' E 024°40'0 0.0
2017-Oct-12 02:59N 59°27' E 024°40'0 0.0
2017-Oct-12 02:29N 59°27' E 024°40'0 0.0
2017-Oct-12 01:59N 59°27' E 024°40'0 0.0
2017-Oct-12 01:29N 59°27' E 024°40'0 0.0
2017-Oct-12 00:59N 59°27' E 024°40'0 0.0
2017-Oct-12 00:29N 59°27' E 024°40'0 0.0
2017-Oct-11 23:59N 59°27' E 024°40'0 0.0
2017-Oct-11 23:29N 59°27' E 024°40'0 0.0
2017-Oct-11 22:59N 59°27' E 024°40'0 0.0
2017-Oct-11 22:29N 59°27' E 024°40'0 0.0
2017-Oct-11 21:59N 59°27' E 024°40'0 0.0
2017-Oct-11 21:29N 59°27' E 024°40'0 0.0
2017-Oct-11 20:59N 59°27' E 024°40'0 0.0
2017-Oct-11 20:29N 59°27' E 024°40'0 0.0
2017-Oct-11 19:59N 59°27' E 024°40'0 0.0
2017-Oct-11 19:29N 59°27' E 024°40'0 0.0
2017-Oct-11 18:59N 59°27' E 024°40'0 0.0
2017-Oct-11 18:29N 59°27' E 024°40'0 0.0
2017-Oct-11 17:59N 59°27' E 024°40'0 0.0
2017-Oct-11 17:29N 59°27' E 024°40'0 0.0
2017-Oct-11 16:59N 59°27' E 024°40'326 7.5
2017-Oct-09 21:49N 56°03' E 016°44'6 9.6
2017-Oct-09 21:10N 56°00' E 016°35'1 9.7
2017-Oct-09 21:00N 55°59' E 016°32'5 9.8
2017-Oct-09 20:30N 55°57' E 016°25'5 9.9
2017-Oct-09 20:00N 55°55' E 016°17'510.0
2017-Oct-09 19:30N 55°52' E 016°09'510.0
2017-Oct-09 19:00N 55°50' E 016°02'510.0
2017-Oct-09 18:30N 55°47' E 015°54'510.0
2017-Oct-09 18:00N 55°45' E 015°46'510.2
2017-Oct-09 17:30N 55°42' E 015°38'510.2
2017-Oct-09 17:00N 55°40' E 015°31'510.1
2017-Oct-09 16:30N 55°37' E 015°23'510.2
2017-Oct-09 16:00N 55°35' E 015°15'510.1
2017-Oct-09 15:30N 55°32' E 015°07'510.0
2017-Oct-09 15:00N 55°29' E 014°60'5 9.8
2017-Oct-09 14:30N 55°27' E 014°52'510.0
2017-Oct-09 14:00N 55°25' E 014°44'5 9.7
2017-Oct-09 13:30N 55°22' E 014°38'510.1
2017-Oct-09 13:00N 55°18' E 014°32'510.2
2017-Oct-09 12:30N 55°14' E 014°27'510.1
2017-Oct-09 12:00N 55°10' E 014°21'510.2
2017-Oct-09 11:30N 55°06' E 014°16'610.2
2017-Oct-09 10:55N 55°01' E 014°08'1610.5
2017-Oct-09 09:26N 54°56' E 013°43'2510.4
2017-Oct-09 07:02N 54°48' E 013°02'010.0
2017-Oct-09 07:00N 54°48' E 013°01'510.4
2017-Oct-09 06:30N 54°46' E 012°53'510.7
2017-Oct-09 06:00N 54°44' E 012°44'  
Track history (hours):
 
Tides and Currents Weather Stations Pressure Air Temp Water Temp Dewpoint Dewpoint Depression Visibility Wind Speed Wind Dir Waves Ship Positions

Longvann

Last reported at 2017-Oct-19 05:25 UTC. Time now 2017-Oct-20 09:05 UTC.
Position N 59°36' E 023°02'.

Length 114 m; draft 5.5 m.

Type: Cargo ship. MMSI: 246670000.

Date/timePositionNaut miles runAvg speedWind from/ knotsBaromVisibWave heightAir tempDewpointWater temp
2017-Oct-19 05:25N 59°36' E 023°02'611.1
2017-Oct-19 04:54N 59°37' E 023°13'411.1
2017-Oct-19 04:30N 59°38' E 023°21'611.0
2017-Oct-19 04:00N 59°40' E 023°32'611.1
2017-Oct-19 03:30N 59°42' E 023°42'611.1
2017-Oct-19 03:00N 59°43' E 023°53'1311.1
2017-Oct-19 01:48N 59°47' E 024°18'311.0
2017-Oct-19 01:31N 59°47' E 024°24'511.0
2017-Oct-19 01:00N 59°48' E 024°35'510.9
2017-Oct-19 00:31N 59°50' E 024°46'510.7
2017-Oct-19 00:00N 59°51' E 024°56'610.8
2017-Oct-18 23:29N 59°52' E 025°07'3310.7
2017-Oct-18 20:22N 59°59' E 026°12'411.0
2017-Oct-18 20:00N 59°60' E 026°20'5 9.2
2017-Oct-18 19:31N 60°01' E 026°29'5 9.7
2017-Oct-18 19:00N 60°01' E 026°38'5 9.8
2017-Oct-18 18:31N 60°01' E 026°48'5 9.8
2017-Oct-18 18:01N 59°60' E 026°58'5 9.8
2017-Oct-18 17:31N 60°01' E 027°07'510.7
2017-Oct-18 17:00N 60°03' E 027°17'510.7
2017-Oct-18 16:31N 60°06' E 027°26'510.7
2017-Oct-18 16:00N 60°09' E 027°35'510.6
2017-Oct-18 15:31N 60°12' E 027°44'5 9.6
2017-Oct-18 15:00N 60°11' E 027°54'1010.2
2017-Oct-18 14:00N 60°09' E 028°13'510.1
2017-Oct-18 13:30N 60°06' E 028°22'510.4
2017-Oct-18 13:00N 60°03' E 028°31'510.6
2017-Oct-18 12:31N 60°03' E 028°41'510.8
2017-Oct-18 12:00N 60°03' E 028°52'510.7
2017-Oct-18 11:30N 60°02' E 029°03'610.4
2017-Oct-18 10:58N 60°02' E 029°14'1510.3
2017-Oct-18 09:32N 59°59' E 029°43'0 6.3
2017-Oct-18 09:29N 59°59' E 029°44'510.0
2017-Oct-18 09:00N 59°57' E 029°52'611.6
2017-Oct-18 08:30N 59°55' E 030°03'4 8.8
2017-Oct-18 08:00N 59°53' E 030°11'1 1.8
2017-Oct-18 07:30N 59°53' E 030°13'0 0.0
2017-Oct-18 06:57N 59°53' E 030°13'0 0.0
2017-Oct-18 06:30N 59°53' E 030°13'0 0.0
2017-Oct-18 06:00N 59°53' E 030°13'0 0.0
2017-Oct-18 05:30N 59°53' E 030°13'0 0.0
2017-Oct-18 05:00N 59°53' E 030°13'0 0.0
2017-Oct-18 04:30N 59°53' E 030°13'0 0.0
2017-Oct-18 04:00N 59°53' E 030°13'0 0.0
2017-Oct-18 03:30N 59°53' E 030°13'0 0.0
2017-Oct-18 03:00N 59°53' E 030°13'0 0.0
2017-Oct-18 02:30N 59°53' E 030°13'0 0.0
2017-Oct-18 02:00N 59°53' E 030°13'0 0.0
2017-Oct-18 01:30N 59°53' E 030°13'0 0.0
2017-Oct-18 01:00N 59°53' E 030°13'0 0.0
2017-Oct-18 00:30N 59°53' E 030°13'0 0.0
2017-Oct-18 00:00N 59°53' E 030°13'0 0.0
2017-Oct-17 23:30N 59°53' E 030°13'0 0.0
2017-Oct-17 23:00N 59°53' E 030°13'0 0.0
2017-Oct-17 22:30N 59°53' E 030°13'0 0.0
2017-Oct-17 22:00N 59°53' E 030°13'0 0.0
2017-Oct-17 21:27N 59°53' E 030°13'0 0.0
2017-Oct-17 21:00N 59°53' E 030°13'0 0.0
2017-Oct-17 20:30N 59°53' E 030°13'0 0.0
2017-Oct-17 20:00N 59°53' E 030°13'0 0.0
2017-Oct-17 19:30N 59°53' E 030°13'0 0.0
2017-Oct-17 18:58N 59°53' E 030°13'0 0.0
2017-Oct-17 18:28N 59°53' E 030°13'0 0.0
2017-Oct-17 17:59N 59°53' E 030°13'0 0.0
2017-Oct-17 17:28N 59°53' E 030°13'0 0.0
2017-Oct-17 16:59N 59°53' E 030°13'0 0.0
2017-Oct-17 16:28N 59°53' E 030°13'0 0.0
2017-Oct-17 15:58N 59°53' E 030°13'0 0.0
2017-Oct-17 15:28N 59°53' E 030°13'0 0.0
2017-Oct-17 14:59N 59°53' E 030°13'0 0.0
2017-Oct-17 14:29N 59°53' E 030°13'0 0.0
2017-Oct-17 13:58N 59°53' E 030°13'0 0.0
2017-Oct-17 13:28N 59°53' E 030°13'0 0.0
2017-Oct-17 12:56N 59°53' E 030°13'0 0.0
2017-Oct-17 12:29N 59°53' E 030°13'0 0.0
2017-Oct-17 11:58N 59°53' E 030°13'0 0.0
2017-Oct-17 11:28N 59°53' E 030°13'0 0.0
2017-Oct-17 10:59N 59°53' E 030°13'0 0.0
2017-Oct-17 10:29N 59°53' E 030°13'0 0.0
2017-Oct-17 09:59N 59°53' E 030°13'0 0.0
2017-Oct-17 09:29N 59°53' E 030°13'0 0.0
2017-Oct-17 08:59N 59°53' E 030°13'0 0.0
2017-Oct-17 08:29N 59°53' E 030°13'0 0.0
2017-Oct-17 07:58N 59°53' E 030°13'0 0.0
2017-Oct-17 07:28N 59°53' E 030°13'0 0.0
2017-Oct-17 06:59N 59°53' E 030°13'0 0.0
2017-Oct-17 06:28N 59°53' E 030°13'0 0.0
2017-Oct-17 05:59N 59°53' E 030°13'0 0.0
2017-Oct-17 05:29N 59°53' E 030°13'0 0.0
2017-Oct-17 04:58N 59°53' E 030°13'0 0.3
2017-Oct-17 04:29N 59°53' E 030°13'2 3.1
2017-Oct-17 03:58N 59°55' E 030°14'0 0.0
2017-Oct-17 03:16N 59°55' E 030°14'0 0.0
2017-Oct-17 02:58N 59°55' E 030°14'0 0.0
2017-Oct-17 02:28N 59°55' E 030°14'0 0.0
2017-Oct-17 01:58N 59°55' E 030°14'0 0.0
2017-Oct-17 01:28N 59°55' E 030°14'0 0.0
2017-Oct-17 00:58N 59°55' E 030°14'0 0.0
2017-Oct-17 00:28N 59°55' E 030°14'0 0.0
2017-Oct-16 23:58N 59°55' E 030°14'0 0.0
2017-Oct-16 23:28N 59°55' E 030°14'0 0.0
2017-Oct-16 22:58N 59°55' E 030°14'0 0.0
2017-Oct-16 22:28N 59°55' E 030°14'0 0.0
2017-Oct-16 21:58N 59°55' E 030°14'0 0.0
2017-Oct-16 21:28N 59°55' E 030°14'0 0.0
2017-Oct-16 20:58N 59°55' E 030°14'0 0.0
2017-Oct-16 20:28N 59°55' E 030°14'0 0.0
2017-Oct-16 19:58N 59°55' E 030°14'0 0.0
2017-Oct-16 19:28N 59°55' E 030°14'0 0.0
2017-Oct-16 18:58N 59°55' E 030°14'0 0.0
2017-Oct-16 18:28N 59°55' E 030°14'0 0.0
2017-Oct-16 17:58N 59°55' E 030°14'0 0.0
2017-Oct-16 17:28N 59°55' E 030°14'0 0.0
2017-Oct-16 16:58N 59°55' E 030°14'0 0.0
2017-Oct-16 16:28N 59°55' E 030°14'0 0.0
2017-Oct-16 15:58N 59°55' E 030°14'0 0.0
2017-Oct-16 15:28N 59°55' E 030°14'0 0.0
2017-Oct-16 14:52N 59°55' E 030°14'0 0.0
2017-Oct-16 13:58N 59°55' E 030°14'0 0.0
2017-Oct-16 13:28N 59°55' E 030°14'0 0.0
2017-Oct-16 12:58N 59°55' E 030°14'0 0.0
2017-Oct-16 12:28N 59°55' E 030°14'0 0.0
2017-Oct-16 11:58N 59°55' E 030°14'0 0.0
2017-Oct-16 11:28N 59°55' E 030°14'0 0.0
2017-Oct-16 10:58N 59°55' E 030°14'0 0.0
2017-Oct-16 10:25N 59°55' E 030°14'0 0.0
2017-Oct-16 09:58N 59°55' E 030°14'0 0.0
2017-Oct-16 09:28N 59°55' E 030°14'0 0.0
2017-Oct-16 08:58N 59°55' E 030°14'0 0.0
2017-Oct-16 08:28N 59°55' E 030°14'0 0.0
2017-Oct-16 07:58N 59°55' E 030°14'0 0.0
2017-Oct-16 07:28N 59°55' E 030°14'0 0.0
2017-Oct-16 06:58N 59°55' E 030°14'0 0.0
2017-Oct-16 06:28N 59°55' E 030°14'0 0.0
2017-Oct-16 05:58N 59°55' E 030°14'0 0.0
2017-Oct-16 05:25N 59°55' E 030°14'0 0.0
2017-Oct-16 04:58N 59°55' E 030°14'0 0.0
2017-Oct-16 04:28N 59°55' E 030°14'0 0.0
2017-Oct-16 03:58N 59°55' E 030°14'0 0.0
2017-Oct-16 03:28N 59°55' E 030°14'0 0.0
2017-Oct-16 02:58N 59°55' E 030°14'0 0.0
2017-Oct-16 02:28N 59°55' E 030°14'0 0.0
2017-Oct-16 01:58N 59°55' E 030°14'0 0.0
2017-Oct-16 01:28N 59°55' E 030°14'0 0.0
2017-Oct-16 00:58N 59°55' E 030°14'0 0.0
2017-Oct-16 00:28N 59°55' E 030°14'0 0.0
2017-Oct-15 23:58N 59°55' E 030°14'0 0.0
2017-Oct-15 23:28N 59°55' E 030°14'0 0.0
2017-Oct-15 22:55N 59°55' E 030°14'0 0.0
2017-Oct-15 22:28N 59°55' E 030°14'0 0.0
2017-Oct-15 21:58N 59°55' E 030°14'0 0.0
2017-Oct-15 21:28N 59°55' E 030°14'0 0.0
2017-Oct-15 20:58N 59°55' E 030°14'0 0.0
2017-Oct-15 20:28N 59°55' E 030°14'0 0.0
2017-Oct-15 19:58N 59°55' E 030°14'0 0.0
2017-Oct-15 19:28N 59°55' E 030°14'0 0.0
2017-Oct-15 18:58N 59°55' E 030°14'0 0.0
2017-Oct-15 18:28N 59°55' E 030°14'0 0.0
2017-Oct-15 17:58N 59°55' E 030°14'0 0.0
2017-Oct-15 17:28N 59°55' E 030°14'0 0.0
2017-Oct-15 16:58N 59°55' E 030°14'0 0.0
2017-Oct-15 16:28N 59°55' E 030°14'0 0.0
2017-Oct-15 15:58N 59°55' E 030°14'0 0.0
2017-Oct-15 15:28N 59°55' E 030°14'0 0.0
2017-Oct-15 14:58N 59°55' E 030°14'0 0.0
2017-Oct-15 13:58N 59°55' E 030°14'0 0.0
2017-Oct-15 13:28N 59°55' E 030°14'0 0.0
2017-Oct-15 12:58N 59°55' E 030°14'0 0.0
2017-Oct-15 12:28N 59°55' E 030°14'0 0.0
2017-Oct-15 11:58N 59°55' E 030°14'0 0.0
2017-Oct-15 11:28N 59°55' E 030°14'0 0.0
2017-Oct-15 10:58N 59°55' E 030°14'0 0.0
2017-Oct-15 10:28N 59°55' E 030°14'0 0.0
2017-Oct-15 09:58N 59°55' E 030°14'0 0.0
2017-Oct-15 09:28N 59°55' E 030°14'0 0.0
2017-Oct-15 08:58N 59°55' E 030°14'0 0.0
2017-Oct-15 08:28N 59°55' E 030°14'0 0.0
2017-Oct-15 07:58N 59°55' E 030°14'0 0.0
2017-Oct-15 07:28N 59°55' E 030°14'0 0.0
2017-Oct-15 06:58N 59°55' E 030°14'0 0.0
2017-Oct-15 06:28N 59°55' E 030°14'0 0.0
2017-Oct-15 05:58N 59°55' E 030°14'0 0.0
2017-Oct-15 05:28N 59°55' E 030°14'0 0.0
2017-Oct-15 04:58N 59°55' E 030°14'0 0.0
2017-Oct-15 04:28N 59°55' E 030°14'0 0.0
2017-Oct-15 03:58N 59°55' E 030°14'0 0.0
2017-Oct-15 03:28N 59°55' E 030°14'0 0.0
2017-Oct-15 02:58N 59°55' E 030°14'0 0.0
2017-Oct-15 02:28N 59°55' E 030°14'0 0.0
2017-Oct-15 01:58N 59°55' E 030°14'0 0.0
2017-Oct-15 01:28N 59°55' E 030°14'0 0.0
2017-Oct-15 00:58N 59°55' E 030°14'0 0.0
2017-Oct-15 00:28N 59°55' E 030°14'0 0.0
2017-Oct-14 23:58N 59°55' E 030°14'0 0.0
2017-Oct-14 23:28N 59°55' E 030°14'0 0.0
2017-Oct-14 22:58N 59°55' E 030°14'0 0.0
2017-Oct-14 22:28N 59°55' E 030°14'0 0.0
2017-Oct-14 21:58N 59°55' E 030°14'0 0.0
2017-Oct-14 21:28N 59°55' E 030°14'0 0.0
2017-Oct-14 20:58N 59°55' E 030°14'0 0.0
2017-Oct-14 20:28N 59°55' E 030°14'0 0.0
2017-Oct-14 19:58N 59°55' E 030°14'0 0.0
2017-Oct-14 19:28N 59°55' E 030°14'0 0.0
2017-Oct-14 18:58N 59°55' E 030°14'0 0.0
2017-Oct-14 18:28N 59°55' E 030°14'0 0.0
2017-Oct-14 17:58N 59°55' E 030°14'0 0.0
2017-Oct-14 17:28N 59°55' E 030°14'0 0.0
2017-Oct-14 16:58N 59°55' E 030°14'0 0.0
2017-Oct-14 16:28N 59°55' E 030°14'0 0.0
2017-Oct-14 16:00N 59°55' E 030°14'0 0.1
2017-Oct-14 15:31N 59°55' E 030°14'2 4.0
2017-Oct-14 15:00N 59°53' E 030°11'3 6.1
2017-Oct-14 14:31N 59°54' E 030°06'5 9.1
2017-Oct-14 14:00N 59°56' E 029°57'611.4
2017-Oct-14 13:30N 59°58' E 029°47'611.1
2017-Oct-14 13:00N 60°00' E 029°37'13 6.3
2017-Oct-14 10:58N 60°02' E 029°11'4 7.5
2017-Oct-14 10:24N 60°02' E 029°02'6 8.3
2017-Oct-14 09:44N 60°02' E 028°51'2 8.2
2017-Oct-14 09:30N 60°02' E 028°47'4 8.3
2017-Oct-14 09:00N 60°02' E 028°39'4 8.4
2017-Oct-14 08:30N 60°02' E 028°31'510.7
2017-Oct-14 08:00N 60°05' E 028°21'611.3
2017-Oct-14 07:30N 60°08' E 028°11'612.0
2017-Oct-14 07:00N 60°09' E 027°60'612.2
2017-Oct-14 06:30N 60°11' E 027°48'611.9
2017-Oct-14 06:00N 60°08' E 027°38'612.1
2017-Oct-14 05:30N 60°05' E 027°27'612.2
2017-Oct-14 05:00N 60°02' E 027°16'612.1
2017-Oct-14 04:30N 59°59' E 027°06'611.7
2017-Oct-14 04:00N 59°58' E 026°54'612.3
2017-Oct-14 03:30N 59°59' E 026°42'612.0
2017-Oct-14 03:00N 59°58' E 026°30'612.1
2017-Oct-14 02:30N 59°56' E 026°19'3412.2
2017-Oct-13 23:44N 59°48' E 025°13'312.2
2017-Oct-13 23:30N 59°48' E 025°08'612.6
2017-Oct-13 23:00N 59°46' E 024°55'612.4
2017-Oct-13 22:30N 59°45' E 024°43'611.8
2017-Oct-13 22:00N 59°42' E 024°34'611.9
2017-Oct-13 21:30N 59°37' E 024°26'5 9.9
2017-Oct-13 21:00N 59°32' E 024°28'611.6
2017-Oct-13 20:30N 59°28' E 024°36'2 3.9
2017-Oct-13 19:59N 59°27' E 024°40'0 0.0
2017-Oct-13 19:29N 59°27' E 024°40'0 0.0
2017-Oct-13 18:59N 59°27' E 024°40'0 0.0
2017-Oct-13 18:29N 59°27' E 024°40'0 0.0
2017-Oct-13 17:59N 59°27' E 024°40'0 0.0
2017-Oct-13 17:29N 59°27' E 024°40'0 0.0
2017-Oct-13 16:56N 59°27' E 024°40'0 0.0
2017-Oct-13 16:29N 59°27' E 024°40'0 0.0
2017-Oct-13 15:59N 59°27' E 024°40'0 0.0
2017-Oct-13 15:29N 59°27' E 024°40'0 0.0
2017-Oct-13 14:59N 59°27' E 024°40'0 0.0
2017-Oct-13 14:29N 59°27' E 024°40'0 0.0
2017-Oct-13 13:59N 59°27' E 024°40'0 0.0
2017-Oct-13 13:29N 59°27' E 024°40'0 0.0
2017-Oct-13 12:59N 59°27' E 024°40'0 0.0
2017-Oct-13 12:29N 59°27' E 024°40'0 0.0
2017-Oct-13 11:59N 59°27' E 024°40'0 0.0
2017-Oct-13 11:29N 59°27' E 024°40'0 0.0
2017-Oct-13 10:59N 59°27' E 024°40'0 0.0
2017-Oct-13 10:29N 59°27' E 024°40'0 0.0
2017-Oct-13 09:59N 59°27' E 024°40'0 0.0
2017-Oct-13 09:29N 59°27' E 024°40'0 0.0
2017-Oct-13 08:59N 59°27' E 024°40'0 0.0
2017-Oct-13 08:29N 59°27' E 024°40'0 0.0
2017-Oct-13 07:59N 59°27' E 024°40'0 0.0
2017-Oct-13 07:29N 59°27' E 024°40'0 0.0
2017-Oct-13 06:59N 59°27' E 024°40'0 0.0
2017-Oct-13 06:29N 59°27' E 024°40'0 0.0
2017-Oct-13 05:59N 59°27' E 024°40'0 0.0
2017-Oct-13 05:29N 59°27' E 024°40'0 0.0
2017-Oct-13 04:56N 59°27' E 024°40'0 0.0
2017-Oct-13 04:26N 59°27' E 024°40'0 0.0
2017-Oct-13 03:56N 59°27' E 024°40'0 0.0
2017-Oct-13 03:26N 59°27' E 024°40'0 0.0
2017-Oct-13 02:59N 59°27' E 024°40'0 0.0
2017-Oct-13 02:29N 59°27' E 024°40'0 0.0
2017-Oct-13 01:59N 59°27' E 024°40'0 0.0
2017-Oct-13 01:29N 59°27' E 024°40'0 0.0
2017-Oct-13 00:56N 59°27' E 024°40'0 0.0
2017-Oct-13 00:29N 59°27' E 024°40'0 0.0
2017-Oct-12 23:56N 59°27' E 024°40'0 0.0
2017-Oct-12 23:29N 59°27' E 024°40'0 0.0
2017-Oct-12 22:56N 59°27' E 024°40'0 0.0
2017-Oct-12 22:29N 59°27' E 024°40'0 0.0
2017-Oct-12 21:59N 59°27' E 024°40'0 0.0
2017-Oct-12 21:29N 59°27' E 024°40'0 0.0
2017-Oct-12 20:56N 59°27' E 024°40'0 0.0
2017-Oct-12 20:26N 59°27' E 024°40'0 0.0
2017-Oct-12 19:56N 59°27' E 024°40'0 0.0
2017-Oct-12 19:29N 59°27' E 024°40'0 0.0
2017-Oct-12 18:59N 59°27' E 024°40'0 0.0
2017-Oct-12 18:29N 59°27' E 024°40'0 0.0
2017-Oct-12 17:56N 59°27' E 024°40'0 0.0
2017-Oct-12 17:29N 59°27' E 024°40'0 0.0
2017-Oct-12 16:59N 59°27' E 024°40'0 0.0
2017-Oct-12 16:26N 59°27' E 024°40'0 0.0
2017-Oct-12 15:59N 59°27' E 024°40'0 0.0
2017-Oct-12 15:26N 59°27' E 024°40'0 0.0
2017-Oct-12 14:59N 59°27' E 024°40'0 0.0
2017-Oct-12 14:14N 59°27' E 024°40'0 0.0
2017-Oct-12 13:56N 59°27' E 024°40'0 0.0
2017-Oct-12 13:20N 59°27' E 024°40'0 0.0
2017-Oct-12 12:56N 59°27' E 024°40'0 0.0
2017-Oct-12 12:26N 59°27' E 024°40'0 0.0
2017-Oct-12 11:50N 59°27' E 024°40'0 0.0
2017-Oct-12 11:29N 59°27' E 024°40'0 0.0
2017-Oct-12 10:59N 59°27' E 024°40'0 0.0
2017-Oct-12 10:29N 59°27' E 024°40'0 0.0
2017-Oct-12 09:59N 59°27' E 024°40'0 0.0
2017-Oct-12 09:29N 59°27' E 024°40'0 0.0
2017-Oct-12 08:59N 59°27' E 024°40'0 0.0
2017-Oct-12 08:29N 59°27' E 024°40'0 0.0
2017-Oct-12 07:59N 59°27' E 024°40'0 0.0
2017-Oct-12 07:29N 59°27' E 024°40'0 0.0
2017-Oct-12 06:59N 59°27' E 024°40'0 0.0
2017-Oct-12 06:29N 59°27' E 024°40'0 0.1
2017-Oct-12 05:59N 59°27' E 024°40'0 0.0
2017-Oct-12 05:29N 59°27' E 024°40'0 0.0
2017-Oct-12 04:59N 59°27' E 024°40'0 0.0
2017-Oct-12 04:29N 59°27' E 024°40'0 0.0
2017-Oct-12 03:59N 59°27' E 024°40'0 0.0
2017-Oct-12 03:29N 59°27' E 024°40'0 0.0
2017-Oct-12 02:59N 59°27' E 024°40'0 0.0
2017-Oct-12 02:29N 59°27' E 024°40'0 0.0
2017-Oct-12 01:59N 59°27' E 024°40'0 0.0
2017-Oct-12 01:29N 59°27' E 024°40'0 0.0
2017-Oct-12 00:59N 59°27' E 024°40'0 0.0
2017-Oct-12 00:29N 59°27' E 024°40'0 0.0
2017-Oct-11 23:59N 59°27' E 024°40'0 0.0
2017-Oct-11 23:29N 59°27' E 024°40'0 0.0
2017-Oct-11 22:59N 59°27' E 024°40'0 0.0
2017-Oct-11 22:29N 59°27' E 024°40'0 0.0
2017-Oct-11 21:59N 59°27' E 024°40'0 0.0
2017-Oct-11 21:29N 59°27' E 024°40'0 0.0
2017-Oct-11 20:59N 59°27' E 024°40'0 0.0
2017-Oct-11 20:29N 59°27' E 024°40'0 0.0
2017-Oct-11 19:59N 59°27' E 024°40'0 0.0
2017-Oct-11 19:29N 59°27' E 024°40'0 0.0
2017-Oct-11 18:59N 59°27' E 024°40'0 0.0
2017-Oct-11 18:29N 59°27' E 024°40'0 0.0
2017-Oct-11 17:59N 59°27' E 024°40'0 0.0
2017-Oct-11 17:29N 59°27' E 024°40'0 0.0
2017-Oct-11 16:59N 59°27' E 024°40'326 7.5
2017-Oct-09 21:49N 56°03' E 016°44'6 9.6
2017-Oct-09 21:10N 56°00' E 016°35'1 9.7
2017-Oct-09 21:00N 55°59' E 016°32'5 9.8
2017-Oct-09 20:30N 55°57' E 016°25'5 9.9
2017-Oct-09 20:00N 55°55' E 016°17'510.0
2017-Oct-09 19:30N 55°52' E 016°09'510.0
2017-Oct-09 19:00N 55°50' E 016°02'510.0
2017-Oct-09 18:30N 55°47' E 015°54'510.0
2017-Oct-09 18:00N 55°45' E 015°46'510.2
2017-Oct-09 17:30N 55°42' E 015°38'510.2
2017-Oct-09 17:00N 55°40' E 015°31'510.1
2017-Oct-09 16:30N 55°37' E 015°23'510.2
2017-Oct-09 16:00N 55°35' E 015°15'510.1
2017-Oct-09 15:30N 55°32' E 015°07'510.0
2017-Oct-09 15:00N 55°29' E 014°60'5 9.8
2017-Oct-09 14:30N 55°27' E 014°52'510.0
2017-Oct-09 14:00N 55°25' E 014°44'5 9.7
2017-Oct-09 13:30N 55°22' E 014°38'510.1
2017-Oct-09 13:00N 55°18' E 014°32'510.2
2017-Oct-09 12:30N 55°14' E 014°27'510.1
2017-Oct-09 12:00N 55°10' E 014°21'510.2
2017-Oct-09 11:30N 55°06' E 014°16'610.2
2017-Oct-09 10:55N 55°01' E 014°08'1610.5
2017-Oct-09 09:26N 54°56' E 013°43'2510.4
2017-Oct-09 07:02N 54°48' E 013°02'010.0
2017-Oct-09 07:00N 54°48' E 013°01'510.4
2017-Oct-09 06:30N 54°46' E 012°53'510.7
2017-Oct-09 06:00N 54°44' E 012°44'  

Dump ship's entire track history